sensor_id;sensor_type;location;lat;lon;timestamp;pressure;altitude;pressure_sealevel;temperature;humidity
8253;BME280;61313;48.396;10.008;2023-12-04T00:01:31;96418.59;;;-4.31;74.48
8253;BME280;61313;48.396;10.008;2023-12-04T00:03:57;96414.19;;;-4.40;72.14
8253;BME280;61313;48.396;10.008;2023-12-04T00:06:23;96411.13;;;-4.16;70.11
8253;BME280;61313;48.396;10.008;2023-12-04T00:08:48;96411.00;;;-4.23;69.38
8253;BME280;61313;48.396;10.008;2023-12-04T00:11:14;96406.94;;;-4.11;67.13
8253;BME280;61313;48.396;10.008;2023-12-04T00:13:39;96414.91;;;-3.88;66.94
8253;BME280;61313;48.396;10.008;2023-12-04T00:16:05;96411.34;;;-3.97;64.70
8253;BME280;61313;48.396;10.008;2023-12-04T00:18:31;96419.63;;;-4.18;65.53
8253;BME280;61313;48.396;10.008;2023-12-04T00:20:56;96407.75;;;-4.12;64.81
8253;BME280;61313;48.396;10.008;2023-12-04T00:23:22;96401.81;;;-4.09;64.63
8253;BME280;61313;48.396;10.008;2023-12-04T00:25:47;96400.41;;;-3.87;65.76
8253;BME280;61313;48.396;10.008;2023-12-04T00:28:13;96402.56;;;-4.16;64.92
8253;BME280;61313;48.396;10.008;2023-12-04T00:30:38;96400.41;;;-4.50;66.39
8253;BME280;61313;48.396;10.008;2023-12-04T00:33:04;96392.31;;;-4.77;66.37
8253;BME280;61313;48.396;10.008;2023-12-04T00:35:29;96394.72;;;-4.29;65.20
8253;BME280;61313;48.396;10.008;2023-12-04T00:37:54;96383.81;;;-4.15;64.80
8253;BME280;61313;48.396;10.008;2023-12-04T00:40:20;96391.56;;;-4.72;65.92
8253;BME280;61313;48.396;10.008;2023-12-04T00:42:45;96384.28;;;-4.99;66.71
8253;BME280;61313;48.396;10.008;2023-12-04T00:45:11;96382.28;;;-4.65;66.14
8253;BME280;61313;48.396;10.008;2023-12-04T00:47:36;96383.09;;;-5.21;66.66
8253;BME280;61313;48.396;10.008;2023-12-04T00:50:01;96374.63;;;-5.15;67.86
8253;BME280;61313;48.396;10.008;2023-12-04T00:52:27;96379.31;;;-4.90;66.17
8253;BME280;61313;48.396;10.008;2023-12-04T00:54:52;96378.47;;;-4.90;66.50
8253;BME280;61313;48.396;10.008;2023-12-04T00:57:18;96369.34;;;-4.73;67.11
8253;BME280;61313;48.396;10.008;2023-12-04T00:59:44;96369.78;;;-5.00;70.77
8253;BME280;61313;48.396;10.008;2023-12-04T01:02:09;96358.63;;;-5.03;73.94
8253;BME280;61313;48.396;10.008;2023-12-04T01:04:34;96361.28;;;-4.38;72.37
8253;BME280;61313;48.396;10.008;2023-12-04T01:07:01;96367.69;;;-5.22;74.14
8253;BME280;61313;48.396;10.008;2023-12-04T01:09:26;96352.91;;;-4.87;75.24
8253;BME280;61313;48.396;10.008;2023-12-04T01:11:52;96358.47;;;-5.14;74.02
8253;BME280;61313;48.396;10.008;2023-12-04T01:14:18;96353.34;;;-5.14;74.88
8253;BME280;61313;48.396;10.008;2023-12-04T01:16:44;96351.16;;;-4.91;73.63
8253;BME280;61313;48.396;10.008;2023-12-04T01:19:09;96348.03;;;-5.26;75.34
8253;BME280;61313;48.396;10.008;2023-12-04T01:21:35;96349.91;;;-5.66;75.79
8253;BME280;61313;48.396;10.008;2023-12-04T01:24:00;96345.16;;;-4.92;74.50
8253;BME280;61313;48.396;10.008;2023-12-04T01:26:26;96339.47;;;-4.74;73.94
8253;BME280;61313;48.396;10.008;2023-12-04T01:28:51;96339.66;;;-4.60;73.47
8253;BME280;61313;48.396;10.008;2023-12-04T01:31:16;96342.75;;;-4.84;73.07
8253;BME280;61313;48.396;10.008;2023-12-04T01:33:42;96336.38;;;-4.51;72.38
8253;BME280;61313;48.396;10.008;2023-12-04T01:36:07;96337.47;;;-4.93;73.15
8253;BME280;61313;48.396;10.008;2023-12-04T01:38:33;96333.44;;;-4.77;73.92
8253;BME280;61313;48.396;10.008;2023-12-04T01:40:58;96337.00;;;-4.68;72.89
8253;BME280;61313;48.396;10.008;2023-12-04T01:43:24;96336.13;;;-4.70;72.28
8253;BME280;61313;48.396;10.008;2023-12-04T01:45:49;96329.63;;;-4.46;71.78
8253;BME280;61313;48.396;10.008;2023-12-04T01:48:17;96339.63;;;-4.61;71.16
8253;BME280;61313;48.396;10.008;2023-12-04T01:50:43;96326.56;;;-4.81;73.03
8253;BME280;61313;48.396;10.008;2023-12-04T01:53:09;96326.22;;;-4.42;71.18
8253;BME280;61313;48.396;10.008;2023-12-04T01:55:36;96327.03;;;-4.48;71.72
8253;BME280;61313;48.396;10.008;2023-12-04T01:58:03;96321.16;;;-4.39;71.57
8253;BME280;61313;48.396;10.008;2023-12-04T02:00:30;96314.69;;;-5.33;73.79
8253;BME280;61313;48.396;10.008;2023-12-04T02:02:56;96316.00;;;-5.01;74.17
8253;BME280;61313;48.396;10.008;2023-12-04T02:05:22;96309.63;;;-4.70;72.62
8253;BME280;61313;48.396;10.008;2023-12-04T02:07:48;96318.56;;;-4.40;70.07
8253;BME280;61313;48.396;10.008;2023-12-04T02:10:13;96326.09;;;-4.53;70.88
8253;BME280;61313;48.396;10.008;2023-12-04T02:12:39;96336.31;;;-4.56;70.98
8253;BME280;61313;48.396;10.008;2023-12-04T02:15:04;96327.25;;;-4.93;72.19
8253;BME280;61313;48.396;10.008;2023-12-04T02:17:32;96328.84;;;-5.00;72.12
8253;BME280;61313;48.396;10.008;2023-12-04T02:19:57;96329.69;;;-4.99;71.55
8253;BME280;61313;48.396;10.008;2023-12-04T02:22:23;96329.72;;;-4.98;70.55
8253;BME280;61313;48.396;10.008;2023-12-04T02:24:48;96333.19;;;-5.46;72.98
8253;BME280;61313;48.396;10.008;2023-12-04T02:27:20;96326.63;;;-5.32;72.61
8253;BME280;61313;48.396;10.008;2023-12-04T02:29:52;96319.19;;;-4.60;69.43
8253;BME280;61313;48.396;10.008;2023-12-04T02:32:21;96322.84;;;-4.41;68.07
8253;BME280;61313;48.396;10.008;2023-12-04T02:34:48;96313.25;;;-4.57;67.83
8253;BME280;61313;48.396;10.008;2023-12-04T02:37:16;96308.72;;;-4.75;68.78
8253;BME280;61313;48.396;10.008;2023-12-04T02:39:42;96306.97;;;-5.34;70.73
8253;BME280;61313;48.396;10.008;2023-12-04T02:42:08;96320.91;;;-5.15;70.96
8253;BME280;61313;48.396;10.008;2023-12-04T02:44:33;96315.78;;;-5.15;70.87
8253;BME280;61313;48.396;10.008;2023-12-04T02:46:59;96319.09;;;-5.22;71.78
8253;BME280;61313;48.396;10.008;2023-12-04T02:49:24;96321.78;;;-5.65;73.41
8253;BME280;61313;48.396;10.008;2023-12-04T02:51:50;96311.94;;;-5.45;72.33
8253;BME280;61313;48.396;10.008;2023-12-04T02:54:15;96315.00;;;-5.64;72.23
8253;BME280;61313;48.396;10.008;2023-12-04T02:56:40;96306.94;;;-5.87;73.20
8253;BME280;61313;48.396;10.008;2023-12-04T02:59:06;96312.13;;;-5.81;73.65
8253;BME280;61313;48.396;10.008;2023-12-04T03:01:31;96309.97;;;-5.06;71.90
8253;BME280;61313;48.396;10.008;2023-12-04T03:03:56;96297.25;;;-5.02;70.56
8253;BME280;61313;48.396;10.008;2023-12-04T03:06:22;96291.59;;;-4.81;70.54
8253;BME280;61313;48.396;10.008;2023-12-04T03:08:47;96292.84;;;-5.12;70.17
8253;BME280;61313;48.396;10.008;2023-12-04T03:11:13;96287.25;;;-4.86;69.25
8253;BME280;61313;48.396;10.008;2023-12-04T03:13:38;96288.00;;;-4.94;69.62
8253;BME280;61313;48.396;10.008;2023-12-04T03:16:04;96283.66;;;-4.98;69.42
8253;BME280;61313;48.396;10.008;2023-12-04T03:18:29;96290.91;;;-4.66;68.31
8253;BME280;61313;48.396;10.008;2023-12-04T03:20:55;96286.50;;;-5.36;69.75
8253;BME280;61313;48.396;10.008;2023-12-04T03:23:20;96282.63;;;-5.64;70.96
8253;BME280;61313;48.396;10.008;2023-12-04T03:25:46;96275.00;;;-5.61;71.76
8253;BME280;61313;48.396;10.008;2023-12-04T03:28:11;96268.34;;;-5.51;71.10
8253;BME280;61313;48.396;10.008;2023-12-04T03:30:38;96274.88;;;-5.15;69.97
8253;BME280;61313;48.396;10.008;2023-12-04T03:33:03;96265.06;;;-5.45;69.09
8253;BME280;61313;48.396;10.008;2023-12-04T03:35:29;96253.06;;;-5.48;71.57
8253;BME280;61313;48.396;10.008;2023-12-04T03:37:54;96240.78;;;-5.70;71.56
8253;BME280;61313;48.396;10.008;2023-12-04T03:40:20;96246.97;;;-5.00;70.28
8253;BME280;61313;48.396;10.008;2023-12-04T03:42:45;96239.53;;;-4.80;67.90
8253;BME280;61313;48.396;10.008;2023-12-04T03:45:10;96248.31;;;-4.62;66.79
8253;BME280;61313;48.396;10.008;2023-12-04T03:47:36;96245.41;;;-4.87;67.83
8253;BME280;61313;48.396;10.008;2023-12-04T03:50:01;96238.19;;;-4.52;66.36
8253;BME280;61313;48.396;10.008;2023-12-04T03:52:27;96238.31;;;-5.09;66.88
8253;BME280;61313;48.396;10.008;2023-12-04T03:54:52;96227.22;;;-5.08;68.01
8253;BME280;61313;48.396;10.008;2023-12-04T03:57:17;96225.50;;;-5.08;67.77
8253;BME280;61313;48.396;10.008;2023-12-04T03:59:43;96231.25;;;-5.81;70.45
8253;BME280;61313;48.396;10.008;2023-12-04T04:02:09;96225.84;;;-5.99;71.53
8253;BME280;61313;48.396;10.008;2023-12-04T04:04:34;96221.66;;;-5.94;72.34
8253;BME280;61313;48.396;10.008;2023-12-04T04:06:59;96202.25;;;-5.26;69.13
8253;BME280;61313;48.396;10.008;2023-12-04T04:09:25;96210.09;;;-5.14;68.35
8253;BME280;61313;48.396;10.008;2023-12-04T04:11:50;96201.06;;;-4.87;66.90
8253;BME280;61313;48.396;10.008;2023-12-04T04:14:15;96210.69;;;-5.34;68.38
8253;BME280;61313;48.396;10.008;2023-12-04T04:16:41;96216.63;;;-5.88;69.64
8253;BME280;61313;48.396;10.008;2023-12-04T04:19:06;96210.31;;;-5.57;69.38
8253;BME280;61313;48.396;10.008;2023-12-04T04:21:32;96208.69;;;-4.89;67.35
8253;BME280;61313;48.396;10.008;2023-12-04T04:23:57;96202.78;;;-4.86;66.69
8253;BME280;61313;48.396;10.008;2023-12-04T04:26:22;96199.72;;;-4.56;66.62
8253;BME280;61313;48.396;10.008;2023-12-04T04:28:48;96204.09;;;-4.48;64.99
8253;BME280;61313;48.396;10.008;2023-12-04T04:31:13;96207.34;;;-4.62;64.58
8253;BME280;61313;48.396;10.008;2023-12-04T04:33:38;96206.84;;;-4.32;64.57
8253;BME280;61313;48.396;10.008;2023-12-04T04:36:04;96200.66;;;-4.51;64.19
8253;BME280;61313;48.396;10.008;2023-12-04T04:38:30;96200.94;;;-4.98;65.67
8253;BME280;61313;48.396;10.008;2023-12-04T04:40:55;96187.47;;;-4.83;65.70
8253;BME280;61313;48.396;10.008;2023-12-04T04:43:20;96200.34;;;-5.40;66.13
8253;BME280;61313;48.396;10.008;2023-12-04T04:45:46;96206.09;;;-5.53;66.71
8253;BME280;61313;48.396;10.008;2023-12-04T04:48:11;96198.25;;;-5.06;66.50
8253;BME280;61313;48.396;10.008;2023-12-04T04:50:37;96204.88;;;-5.20;66.22
8253;BME280;61313;48.396;10.008;2023-12-04T04:53:02;96208.44;;;-5.09;65.74
8253;BME280;61313;48.396;10.008;2023-12-04T04:55:28;96206.22;;;-4.83;64.75
8253;BME280;61313;48.396;10.008;2023-12-04T04:57:53;96214.09;;;-5.32;66.50
8253;BME280;61313;48.396;10.008;2023-12-04T05:00:18;96202.94;;;-4.74;64.27
8253;BME280;61313;48.396;10.008;2023-12-04T05:02:44;96206.84;;;-5.02;63.69
8253;BME280;61313;48.396;10.008;2023-12-04T05:05:11;96211.50;;;-4.71;63.36
8253;BME280;61313;48.396;10.008;2023-12-04T05:07:36;96219.13;;;-5.38;63.18
8253;BME280;61313;48.396;10.008;2023-12-04T05:10:02;96211.03;;;-6.19;65.06
8253;BME280;61313;48.396;10.008;2023-12-04T05:12:27;96192.50;;;-6.07;64.79
8253;BME280;61313;48.396;10.008;2023-12-04T05:14:53;96190.09;;;-5.98;65.01
8253;BME280;61313;48.396;10.008;2023-12-04T05:17:18;96184.03;;;-6.04;65.81
8253;BME280;61313;48.396;10.008;2023-12-04T05:19:44;96177.31;;;-5.98;65.60
8253;BME280;61313;48.396;10.008;2023-12-04T05:22:09;96178.34;;;-5.85;66.61
8253;BME280;61313;48.396;10.008;2023-12-04T05:24:34;96183.06;;;-5.56;64.54
8253;BME280;61313;48.396;10.008;2023-12-04T05:27:01;96189.63;;;-5.73;64.81
8253;BME280;61313;48.396;10.008;2023-12-04T05:29:27;96189.31;;;-5.92;65.86
8253;BME280;61313;48.396;10.008;2023-12-04T05:31:53;96183.50;;;-5.83;65.97
8253;BME280;61313;48.396;10.008;2023-12-04T05:34:18;96179.06;;;-5.93;66.94
8253;BME280;61313;48.396;10.008;2023-12-04T05:36:44;96175.16;;;-5.70;65.80
8253;BME280;61313;48.396;10.008;2023-12-04T05:39:09;96162.91;;;-5.92;65.20
8253;BME280;61313;48.396;10.008;2023-12-04T05:41:34;96175.53;;;-6.52;67.28
8253;BME280;61313;48.396;10.008;2023-12-04T05:44:00;96163.47;;;-6.61;66.59
8253;BME280;61313;48.396;10.008;2023-12-04T05:46:26;96159.78;;;-6.28;67.27
8253;BME280;61313;48.396;10.008;2023-12-04T05:48:51;96159.13;;;-6.18;66.21
8253;BME280;61313;48.396;10.008;2023-12-04T05:51:17;96166.91;;;-6.58;68.23
8253;BME280;61313;48.396;10.008;2023-12-04T05:53:42;96157.69;;;-6.02;66.80
8253;BME280;61313;48.396;10.008;2023-12-04T05:56:08;96146.28;;;-5.66;65.59
8253;BME280;61313;48.396;10.008;2023-12-04T05:58:34;96147.09;;;-5.68;64.36
8253;BME280;61313;48.396;10.008;2023-12-04T06:00:59;96149.34;;;-5.87;64.58
8253;BME280;61313;48.396;10.008;2023-12-04T06:03:25;96141.53;;;-5.99;65.47
8253;BME280;61313;48.396;10.008;2023-12-04T06:05:50;96146.75;;;-5.90;66.00
8253;BME280;61313;48.396;10.008;2023-12-04T06:08:16;96144.50;;;-5.70;66.09
8253;BME280;61313;48.396;10.008;2023-12-04T06:10:41;96142.78;;;-5.71;64.97
8253;BME280;61313;48.396;10.008;2023-12-04T06:13:07;96140.88;;;-5.84;65.63
8253;BME280;61313;48.396;10.008;2023-12-04T06:15:32;96144.97;;;-5.97;64.80
8253;BME280;61313;48.396;10.008;2023-12-04T06:17:58;96148.94;;;-5.58;65.57
8253;BME280;61313;48.396;10.008;2023-12-04T06:20:23;96143.00;;;-5.56;64.92
8253;BME280;61313;48.396;10.008;2023-12-04T06:22:49;96137.03;;;-5.56;65.20
8253;BME280;61313;48.396;10.008;2023-12-04T06:25:15;96146.09;;;-5.77;65.52
8253;BME280;61313;48.396;10.008;2023-12-04T06:27:40;96128.97;;;-5.23;65.50
8253;BME280;61313;48.396;10.008;2023-12-04T06:30:06;96124.53;;;-5.36;65.58
8253;BME280;61313;48.396;10.008;2023-12-04T06:32:32;96115.13;;;-5.37;65.41
8253;BME280;61313;48.396;10.008;2023-12-04T06:34:58;96114.06;;;-5.55;64.89
8253;BME280;61313;48.396;10.008;2023-12-04T06:37:24;96110.81;;;-6.04;67.08
8253;BME280;61313;48.396;10.008;2023-12-04T06:39:49;96095.31;;;-6.14;67.11
8253;BME280;61313;48.396;10.008;2023-12-04T06:42:15;96104.41;;;-5.72;64.92
8253;BME280;61313;48.396;10.008;2023-12-04T06:44:41;96108.13;;;-5.52;65.94
8253;BME280;61313;48.396;10.008;2023-12-04T06:47:08;96109.75;;;-5.59;65.58
8253;BME280;61313;48.396;10.008;2023-12-04T06:49:34;96104.69;;;-5.54;64.34
8253;BME280;61313;48.396;10.008;2023-12-04T06:51:59;96100.75;;;-5.91;65.54
8253;BME280;61313;48.396;10.008;2023-12-04T06:54:25;96108.41;;;-5.91;66.65
8253;BME280;61313;48.396;10.008;2023-12-04T06:56:51;96100.94;;;-5.78;66.07
8253;BME280;61313;48.396;10.008;2023-12-04T06:59:19;96097.13;;;-5.48;65.18
8253;BME280;61313;48.396;10.008;2023-12-04T07:01:45;96098.56;;;-5.67;65.67
8253;BME280;61313;48.396;10.008;2023-12-04T07:04:10;96088.59;;;-6.08;66.19
8253;BME280;61313;48.396;10.008;2023-12-04T07:06:37;96084.38;;;-6.06;67.49
8253;BME280;61313;48.396;10.008;2023-12-04T07:09:02;96085.16;;;-6.11;67.54
8253;BME280;61313;48.396;10.008;2023-12-04T07:11:27;96069.22;;;-5.95;66.49
8253;BME280;61313;48.396;10.008;2023-12-04T07:13:53;96069.06;;;-6.06;67.04
8253;BME280;61313;48.396;10.008;2023-12-04T07:16:18;96070.06;;;-5.93;66.36
8253;BME280;61313;48.396;10.008;2023-12-04T07:18:44;96073.75;;;-5.72;65.45
8253;BME280;61313;48.396;10.008;2023-12-04T07:21:09;96053.69;;;-3.46;86.59
8253;BME280;61313;48.396;10.008;2023-12-04T07:23:35;96062.03;;;-3.84;85.65
8253;BME280;61313;48.396;10.008;2023-12-04T07:26:00;96058.06;;;-3.28;70.15
8253;BME280;61313;48.396;10.008;2023-12-04T07:28:26;96064.88;;;-5.35;65.14
8253;BME280;61313;48.396;10.008;2023-12-04T07:30:51;96068.53;;;-5.80;66.37
8253;BME280;61313;48.396;10.008;2023-12-04T07:33:17;96068.03;;;-5.53;66.19
8253;BME280;61313;48.396;10.008;2023-12-04T07:35:43;96077.94;;;-6.35;66.45
8253;BME280;61313;48.396;10.008;2023-12-04T07:38:08;96063.28;;;-6.47;67.64
8253;BME280;61313;48.396;10.008;2023-12-04T07:40:33;96064.13;;;-5.95;68.01
8253;BME280;61313;48.396;10.008;2023-12-04T07:42:59;96063.69;;;-5.60;66.05
8253;BME280;61313;48.396;10.008;2023-12-04T07:45:24;96067.81;;;-5.70;66.91
8253;BME280;61313;48.396;10.008;2023-12-04T07:47:50;96073.28;;;-6.09;66.39
8253;BME280;61313;48.396;10.008;2023-12-04T07:50:16;96075.69;;;-6.69;66.47
8253;BME280;61313;48.396;10.008;2023-12-04T07:52:41;96075.69;;;-6.70;68.69
8253;BME280;61313;48.396;10.008;2023-12-04T07:55:07;96079.25;;;-6.61;68.57
8253;BME280;61313;48.396;10.008;2023-12-04T07:57:32;96079.88;;;-6.72;67.73
8253;BME280;61313;48.396;10.008;2023-12-04T07:59:58;96069.63;;;-6.24;67.06
8253;BME280;61313;48.396;10.008;2023-12-04T08:02:23;96076.13;;;-5.88;65.66
8253;BME280;61313;48.396;10.008;2023-12-04T08:04:49;96075.16;;;-5.93;65.67
8253;BME280;61313;48.396;10.008;2023-12-04T08:07:14;96077.00;;;-5.84;65.87
8253;BME280;61313;48.396;10.008;2023-12-04T08:09:40;96075.97;;;-5.99;66.15
8253;BME280;61313;48.396;10.008;2023-12-04T08:12:06;96065.13;;;-5.81;64.77
8253;BME280;61313;48.396;10.008;2023-12-04T08:14:32;96066.41;;;-5.49;64.25
8253;BME280;61313;48.396;10.008;2023-12-04T08:16:58;96059.50;;;-5.57;65.33
8253;BME280;61313;48.396;10.008;2023-12-04T08:19:23;96056.16;;;-5.53;65.67
8253;BME280;61313;48.396;10.008;2023-12-04T08:21:49;96050.28;;;-6.09;66.12
8253;BME280;61313;48.396;10.008;2023-12-04T08:24:14;96048.84;;;-5.87;66.72
8253;BME280;61313;48.396;10.008;2023-12-04T08:26:43;96044.69;;;-5.81;67.23
8253;BME280;61313;48.396;10.008;2023-12-04T08:29:08;96035.78;;;-5.45;65.45
8253;BME280;61313;48.396;10.008;2023-12-04T08:31:34;96043.34;;;-5.54;65.66
8253;BME280;61313;48.396;10.008;2023-12-04T08:33:59;96041.78;;;-5.43;64.64
8253;BME280;61313;48.396;10.008;2023-12-04T08:36:25;96037.53;;;-5.39;64.17
8253;BME280;61313;48.396;10.008;2023-12-04T08:38:50;96039.81;;;-5.64;64.50
8253;BME280;61313;48.396;10.008;2023-12-04T08:41:15;96021.53;;;-5.24;64.67
8253;BME280;61313;48.396;10.008;2023-12-04T08:43:41;96030.06;;;-5.22;64.55
8253;BME280;61313;48.396;10.008;2023-12-04T08:46:06;96038.59;;;-5.23;64.33
8253;BME280;61313;48.396;10.008;2023-12-04T08:48:32;96032.81;;;-5.07;63.54
8253;BME280;61313;48.396;10.008;2023-12-04T08:50:58;96046.41;;;-5.08;62.92
8253;BME280;61313;48.396;10.008;2023-12-04T08:53:24;96051.38;;;-5.90;64.72
8253;BME280;61313;48.396;10.008;2023-12-04T08:55:49;96047.59;;;-5.53;66.23
8253;BME280;61313;48.396;10.008;2023-12-04T08:58:17;96030.88;;;-5.93;66.60
8253;BME280;61313;48.396;10.008;2023-12-04T09:00:42;96034.84;;;-5.51;66.90
8253;BME280;61313;48.396;10.008;2023-12-04T09:03:09;96013.59;;;-5.47;65.41
8253;BME280;61313;48.396;10.008;2023-12-04T09:05:36;96007.97;;;-5.87;66.17
8253;BME280;61313;48.396;10.008;2023-12-04T09:08:01;96003.63;;;-5.93;67.80
8253;BME280;61313;48.396;10.008;2023-12-04T09:10:26;96009.34;;;-5.45;66.69
8253;BME280;61313;48.396;10.008;2023-12-04T09:12:52;96017.78;;;-5.51;66.34
8253;BME280;61313;48.396;10.008;2023-12-04T09:15:17;96007.16;;;-5.15;65.31
8253;BME280;61313;48.396;10.008;2023-12-04T09:17:43;96012.75;;;-5.43;64.83
8253;BME280;61313;48.396;10.008;2023-12-04T09:20:08;96009.78;;;-5.80;66.14
8253;BME280;61313;48.396;10.008;2023-12-04T09:22:34;96010.31;;;-5.34;65.47
8253;BME280;61313;48.396;10.008;2023-12-04T09:25:04;96011.47;;;-5.79;65.43
8253;BME280;61313;48.396;10.008;2023-12-04T09:27:30;96022.53;;;-5.83;66.25
8253;BME280;61313;48.396;10.008;2023-12-04T09:29:55;96013.38;;;-5.64;66.48
8253;BME280;61313;48.396;10.008;2023-12-04T09:32:20;96029.50;;;-5.71;67.54
8253;BME280;61313;48.396;10.008;2023-12-04T09:34:46;96032.31;;;-5.48;66.54
8253;BME280;61313;48.396;10.008;2023-12-04T09:37:11;96019.44;;;-5.56;67.00
8253;BME280;61313;48.396;10.008;2023-12-04T09:39:37;96015.69;;;-5.11;66.18
8253;BME280;61313;48.396;10.008;2023-12-04T09:42:02;96011.03;;;-4.65;65.41
8253;BME280;61313;48.396;10.008;2023-12-04T09:44:29;96010.38;;;-4.39;63.13
8253;BME280;61313;48.396;10.008;2023-12-04T09:46:55;96013.81;;;-4.39;63.83
8253;BME280;61313;48.396;10.008;2023-12-04T09:49:22;96018.16;;;-4.29;63.21
8253;BME280;61313;48.396;10.008;2023-12-04T09:51:48;96020.94;;;-3.96;62.51
8253;BME280;61313;48.396;10.008;2023-12-04T09:54:16;96014.94;;;-3.98;61.36
8253;BME280;61313;48.396;10.008;2023-12-04T09:56:43;96010.50;;;-4.24;61.88
8253;BME280;61313;48.396;10.008;2023-12-04T09:59:09;95996.44;;;-4.74;64.35
8253;BME280;61313;48.396;10.008;2023-12-04T10:01:39;95992.63;;;-4.12;63.30
8253;BME280;61313;48.396;10.008;2023-12-04T10:04:05;95972.09;;;-4.19;62.75
8253;BME280;61313;48.396;10.008;2023-12-04T10:06:31;95983.81;;;-4.55;63.69
8253;BME280;61313;48.396;10.008;2023-12-04T10:08:57;95981.75;;;-4.92;64.90
8253;BME280;61313;48.396;10.008;2023-12-04T10:11:26;95978.97;;;-5.16;65.99
8253;BME280;61313;48.396;10.008;2023-12-04T10:13:53;95970.00;;;-4.74;64.73
8253;BME280;61313;48.396;10.008;2023-12-04T10:16:36;95966.72;;;-4.58;65.32
8253;BME280;61313;48.396;10.008;2023-12-04T10:21:46;95957.88;;;-3.60;61.24
8253;BME280;61313;48.396;10.008;2023-12-04T10:24:15;95950.25;;;-3.36;62.20
8253;BME280;61313;48.396;10.008;2023-12-04T10:26:51;95956.34;;;-3.02;61.02
8253;BME280;61313;48.396;10.008;2023-12-04T10:29:16;95949.53;;;-2.86;59.78
8253;BME280;61313;48.396;10.008;2023-12-04T10:31:42;95933.25;;;-2.85;59.49
8253;BME280;61313;48.396;10.008;2023-12-04T10:34:07;95924.69;;;-2.56;59.94
8253;BME280;61313;48.396;10.008;2023-12-04T10:36:35;95923.84;;;-2.80;60.07
8253;BME280;61313;48.396;10.008;2023-12-04T10:39:01;95918.72;;;-2.69;61.30
8253;BME280;61313;48.396;10.008;2023-12-04T10:41:30;95911.75;;;-3.47;60.87
8253;BME280;61313;48.396;10.008;2023-12-04T10:43:56;95886.06;;;-3.68;63.46
8253;BME280;61313;48.396;10.008;2023-12-04T10:46:24;95889.28;;;-4.17;65.00
8253;BME280;61313;48.396;10.008;2023-12-04T10:48:49;95889.94;;;-4.50;66.37
8253;BME280;61313;48.396;10.008;2023-12-04T10:51:17;95902.94;;;-4.18;64.88
8253;BME280;61313;48.396;10.008;2023-12-04T10:53:42;95898.91;;;-3.60;64.92
8253;BME280;61313;48.396;10.008;2023-12-04T10:56:19;95895.59;;;-3.01;63.01
8253;BME280;61313;48.396;10.008;2023-12-04T10:58:49;95886.09;;;-3.51;64.13
8253;BME280;61313;48.396;10.008;2023-12-04T11:01:16;95871.53;;;-3.71;64.54
8253;BME280;61313;48.396;10.008;2023-12-04T11:03:48;95869.00;;;-3.55;63.12
8253;BME280;61313;48.396;10.008;2023-12-04T11:06:16;95855.22;;;-3.94;64.39
8253;BME280;61313;48.396;10.008;2023-12-04T11:08:46;95855.22;;;-3.85;65.69
8253;BME280;61313;48.396;10.008;2023-12-04T11:11:15;95845.81;;;-3.94;64.21
8253;BME280;61313;48.396;10.008;2023-12-04T11:13:49;95837.19;;;-4.20;65.54
8253;BME280;61313;48.396;10.008;2023-12-04T11:16:22;95829.66;;;-3.62;64.96
8253;BME280;61313;48.396;10.008;2023-12-04T11:18:56;95824.56;;;-2.94;62.13
8253;BME280;61313;48.396;10.008;2023-12-04T11:21:27;95823.69;;;-2.70;61.91
8253;BME280;61313;48.396;10.008;2023-12-04T11:23:53;95826.28;;;-2.90;63.02
8253;BME280;61313;48.396;10.008;2023-12-04T11:26:20;95837.22;;;-4.08;65.30
8253;BME280;61313;48.396;10.008;2023-12-04T11:28:47;95821.94;;;-3.70;64.96
8253;BME280;61313;48.396;10.008;2023-12-04T11:31:13;95825.28;;;-4.01;65.36
8253;BME280;61313;48.396;10.008;2023-12-04T11:33:40;95831.31;;;-3.87;65.79
8253;BME280;61313;48.396;10.008;2023-12-04T11:36:08;95833.09;;;-3.55;63.09
8253;BME280;61313;48.396;10.008;2023-12-04T11:38:35;95822.00;;;-3.39;63.54
8253;BME280;61313;48.396;10.008;2023-12-04T11:41:15;95814.31;;;-3.42;64.43
8253;BME280;61313;48.396;10.008;2023-12-04T11:43:42;95813.41;;;-3.63;64.33
8253;BME280;61313;48.396;10.008;2023-12-04T11:46:11;95816.00;;;-2.98;63.82
8253;BME280;61313;48.396;10.008;2023-12-04T11:48:37;95816.72;;;-2.30;61.32
8253;BME280;61313;48.396;10.008;2023-12-04T11:51:05;95823.69;;;-3.03;62.88
8253;BME280;61313;48.396;10.008;2023-12-04T11:53:32;95825.41;;;-3.29;63.94
8253;BME280;61313;48.396;10.008;2023-12-04T11:55:57;95829.63;;;-3.67;64.54
8253;BME280;61313;48.396;10.008;2023-12-04T11:58:23;95826.28;;;-3.32;64.79
8253;BME280;61313;48.396;10.008;2023-12-04T12:00:48;95825.41;;;-3.08;65.22
8253;BME280;61313;48.396;10.008;2023-12-04T12:03:14;95819.41;;;-2.81;62.03
8253;BME280;61313;48.396;10.008;2023-12-04T12:05:40;95805.75;;;-3.30;63.95
8253;BME280;61313;48.396;10.008;2023-12-04T12:08:08;95801.47;;;-3.05;62.71
8253;BME280;61313;48.396;10.008;2023-12-04T12:10:34;95800.63;;;-3.47;63.63
8253;BME280;61313;48.396;10.008;2023-12-04T12:13:00;95799.66;;;-3.97;65.00
8253;BME280;61313;48.396;10.008;2023-12-04T12:15:26;95809.19;;;-3.42;63.73
8253;BME280;61313;48.396;10.008;2023-12-04T12:17:52;95798.91;;;-3.22;64.68
8253;BME280;61313;48.396;10.008;2023-12-04T12:20:20;95807.44;;;-2.79;63.01
8253;BME280;61313;48.396;10.008;2023-12-04T12:22:48;95826.28;;;-3.01;63.49
8253;BME280;61313;48.396;10.008;2023-12-04T12:25:14;95803.16;;;-2.84;62.96
8253;BME280;61313;48.396;10.008;2023-12-04T12:27:40;95793.75;;;-2.81;64.43
8253;BME280;61313;48.396;10.008;2023-12-04T12:30:07;95791.94;;;-4.05;66.50
8253;BME280;61313;48.396;10.008;2023-12-04T12:32:34;95772.34;;;-3.84;67.05
8253;BME280;61313;48.396;10.008;2023-12-04T12:35:01;95762.91;;;-4.00;68.02
8253;BME280;61313;48.396;10.008;2023-12-04T12:37:26;95767.22;;;-2.86;65.50
8253;BME280;61313;48.396;10.008;2023-12-04T12:39:52;95755.97;;;-2.40;63.07
8253;BME280;61313;48.396;10.008;2023-12-04T12:42:22;95767.16;;;-2.55;62.90
8253;BME280;61313;48.396;10.008;2023-12-04T12:44:48;95750.16;;;-3.17;65.27
8253;BME280;61313;48.396;10.008;2023-12-04T12:47:14;95750.88;;;-2.54;64.63
8253;BME280;61313;48.396;10.008;2023-12-04T12:49:40;95746.56;;;-2.53;63.60
8253;BME280;61313;48.396;10.008;2023-12-04T12:52:05;95729.50;;;-2.64;64.45
8253;BME280;61313;48.396;10.008;2023-12-04T12:54:39;95732.63;;;-2.00;62.09
8253;BME280;61313;48.396;10.008;2023-12-04T12:57:05;95740.63;;;-2.57;63.46